Reece, Kansas
Current Conditions -  °F | °C
As of 5:55 AM on Friday 19 Dec 2014 (Local Time) from KEQA Reporting Station
Haze Haze  
Wind Chill: 26°   Ceiling: 200
Heat Index: 32°   Visibility: 4mi
Dew Point: 32°   Wind: 6mph
Humidity: 100%   Direction: 50°NE
Pressure: 30.2"   Gusts: NA
Location:  37.8908°N, 96.3726°W
Report Text: KEQA 191155Z AUTO 05005KT 4SM BR OVC002 00/00 A3020 RMK AO2
Loading
Personal Weather Stations






























Interactive Weather Map New forecast layout! Learn more

10-Day Weather Forecast

Advertisements
Track Severe Weather on mobile